createdAt,value
2023-01-19T00:01:05.453Z,53
2023-01-19T00:16:05.661Z,54
2023-01-19T00:31:05.572Z,59
2023-01-19T00:46:05.610Z,63
2023-01-19T01:01:05.545Z,58
2023-01-19T01:16:05.311Z,58
2023-01-19T01:31:05.365Z,90
2023-01-19T01:46:05.388Z,104
2023-01-19T02:01:05.642Z,118
2023-01-19T02:16:05.572Z,123
2023-01-19T02:31:05.568Z,129
2023-01-19T02:46:05.309Z,118
2023-01-19T03:01:05.806Z,113
2023-01-19T03:16:05.335Z,106
2023-01-19T03:31:05.497Z,112
2023-01-19T03:46:05.677Z,111
2023-01-19T04:01:04.934Z,105
2023-01-19T04:16:05.312Z,103
2023-01-19T04:31:04.747Z,111
2023-01-19T04:46:05.745Z,119
2023-01-19T05:01:04.872Z,139
2023-01-19T05:16:04.841Z,133
2023-01-19T05:31:05.647Z,124
2023-01-19T05:46:05.176Z,121
2023-01-19T06:01:05.333Z,167
2023-01-19T06:16:04.861Z,194
2023-01-19T06:31:05.183Z,176
2023-01-19T06:46:05.757Z,182
2023-01-19T07:01:06.005Z,152
2023-01-19T07:16:08.289Z,151
2023-01-19T07:31:05.579Z,132
2023-01-19T07:46:04.752Z,110
2023-01-19T08:01:04.691Z,109
2023-01-19T08:16:05.097Z,99
2023-01-19T08:31:22.454Z,111
2023-01-19T08:46:05.302Z,123
2023-01-19T09:01:04.679Z,132
2023-01-19T09:16:05.832Z,130
2023-01-19T09:31:05.861Z,135
2023-01-19T09:46:05.331Z,132
2023-01-19T10:01:05.187Z,155
2023-01-19T10:16:05.198Z,155
2023-01-19T10:31:05.357Z,152
2023-01-19T10:46:05.605Z,127
2023-01-19T11:01:05.218Z,133
2023-01-19T11:16:05.394Z,133
2023-01-19T11:31:05.802Z,120
2023-01-19T11:46:05.398Z,116
2023-01-19T12:01:05.311Z,121
2023-01-19T12:16:05.023Z,94
2023-01-19T12:31:05.392Z,90
2023-01-19T12:46:05.864Z,83
2023-01-19T13:01:04.963Z,78
2023-01-19T13:16:04.945Z,63
2023-01-19T13:31:05.185Z,51
2023-01-19T13:46:05.215Z,50
2023-01-19T14:01:04.818Z,58
2023-01-19T14:16:05.226Z,47
2023-01-19T14:31:05.595Z,63
2023-01-19T14:46:05.562Z,57
2023-01-19T15:01:05.837Z,66
2023-01-19T15:16:04.893Z,72
2023-01-19T15:31:05.105Z,95
2023-01-19T15:46:05.474Z,137
2023-01-19T16:01:05.487Z,117
2023-01-19T16:16:05.285Z,112
2023-01-19T16:31:05.538Z,118
2023-01-19T16:46:06.082Z,131
2023-01-19T17:01:05.976Z,100
2023-01-19T17:16:05.582Z,114
2023-01-19T17:31:05.222Z,115
2023-01-19T17:46:05.247Z,106
2023-01-19T18:01:05.722Z,99
2023-01-19T18:16:05.263Z,95
2023-01-19T18:31:05.566Z,76
2023-01-19T18:46:05.640Z,96
2023-01-19T19:01:05.501Z,97
2023-01-19T19:16:05.157Z,78
2023-01-19T19:31:05.535Z,78
2023-01-19T19:46:05.731Z,90
2023-01-19T20:01:05.306Z,101
2023-01-19T20:16:05.075Z,138
2023-01-19T20:31:05.194Z,109
2023-01-19T20:46:05.623Z,112
2023-01-19T21:01:05.096Z,121
2023-01-19T21:16:05.448Z,160
2023-01-19T21:31:04.768Z,134
2023-01-19T21:46:04.827Z,111
2023-01-19T22:01:05.061Z,88
2023-01-19T22:16:05.433Z,113
2023-01-19T22:31:05.045Z,95
2023-01-19T22:46:08.847Z,84
2023-01-19T23:01:05.690Z,95
2023-01-19T23:16:05.770Z,99
2023-01-19T23:31:05.110Z,93
2023-01-19T23:46:06.057Z,80
